Time;durP1;ratioP1;P1;durP2;ratioP2;P2;SDS_P1;SDS_P2;PMS_P1;PMS_P2;Temp;Humidity;BMP_temperature;BMP_pressure;BME280_temperature;BME280_humidity;BME280_pressure;Samples;Min_cycle;Max_cycle;Signal;HPM_P1;HPM_P2
2022/04/19 00:00:05;;;;;;;3.53;2.33;;;;;;;9.41;50.88;96388.81;5035244;28;20183;-66
2022/04/19 00:02:30;;;;;;;3.47;3.00;;;;;;;9.43;50.79;96385.94;5035089;28;20672;-66
2022/04/19 00:04:58;;;;;;;3.10;2.80;;;;;;;9.44;51.22;96388.34;5034902;28;20197;-66
2022/04/19 00:07:24;;;;;;;5.60;3.50;;;;;;;9.41;51.34;96391.44;5034508;28;20536;-66
2022/04/19 00:09:49;;;;;;;4.00;2.70;;;;;;;9.29;52.24;96392.44;5035027;28;20198;-65
2022/04/19 00:12:14;;;;;;;3.55;3.25;;;;;;;9.46;51.75;96388.91;5016389;28;20445;-66
2022/04/19 00:14:40;;;;;;;3.97;2.90;;;;;;;9.44;51.73;96384.94;5033415;28;20473;-66
2022/04/19 00:17:06;;;;;;;3.75;3.10;;;;;;;9.37;51.62;96389.47;5015958;28;20881;-65
2022/04/19 00:19:31;;;;;;;4.07;3.00;;;;;;;9.41;51.42;96378.34;5033997;28;20941;-65
2022/04/19 00:21:56;;;;;;;3.27;2.97;;;;;;;9.41;51.80;96382.78;5033979;28;20745;-66
2022/04/19 00:24:22;;;;;;;3.97;3.00;;;;;;;9.27;52.26;96379.59;5033645;28;20438;-64
2022/04/19 00:26:47;;;;;;;3.30;3.00;;;;;;;9.30;52.20;96371.31;5033739;28;20411;-66
2022/04/19 00:29:13;;;;;;;4.30;3.00;;;;;;;9.18;52.83;96373.94;5033301;28;20383;-67
2022/04/19 00:31:38;;;;;;;5.10;3.10;;;;;;;9.22;52.82;96366.41;5033282;28;20485;-66
2022/04/19 00:34:03;;;;;;;3.03;2.72;;;;;;;9.32;52.44;96371.84;5015275;28;20393;-66
2022/04/19 00:36:29;;;;;;;3.50;3.20;;;;;;;9.38;52.47;96365.72;5033644;28;20402;-66
2022/04/19 00:38:54;;;;;;;4.10;3.05;;;;;;;9.34;52.64;96367.19;5032919;28;20581;-65
2022/04/19 00:41:20;;;;;;;3.47;2.97;;;;;;;9.25;52.86;96365.94;5033654;28;20395;-65
2022/04/19 00:43:45;;;;;;;3.40;3.10;;;;;;;9.14;53.55;96358.91;5015712;28;20388;-66
2022/04/19 00:46:11;;;;;;;3.58;3.00;;;;;;;9.22;53.59;96357.75;5033355;28;20763;-65
2022/04/19 00:48:36;;;;;;;3.33;2.60;;;;;;;9.09;53.38;96354.34;5033431;28;20403;-66
2022/04/19 00:51:02;;;;;;;4.22;3.03;;;;;;;9.01;53.88;96357.31;5033076;28;20434;-65
2022/04/19 00:53:29;;;;;;;3.28;2.83;;;;;;;8.96;54.47;96353.78;5032930;28;22053;-66
2022/04/19 00:55:55;;;;;;;3.75;3.33;;;;;;;8.94;54.54;96348.78;5032864;28;20391;-67
2022/04/19 00:58:20;;;;;;;4.22;3.20;;;;;;;8.78;54.83;96346.84;5033099;28;20449;-65
2022/04/19 01:00:46;;;;;;;4.30;3.13;;;;;;;8.58;55.45;96346.38;5033089;28;20762;-66
2022/04/19 01:03:11;;;;;;;3.77;3.17;;;;;;;8.68;55.32;96344.78;5032257;28;20917;-66
2022/04/19 01:05:37;;;;;;;3.88;3.40;;;;;;;8.76;55.33;96344.44;5032847;28;20390;-66
2022/04/19 01:08:02;;;;;;;3.57;3.23;;;;;;;8.63;55.81;96342.06;5032954;28;20937;-66
2022/04/19 01:10:29;;;;;;;3.83;3.53;;;;;;;8.66;55.64;96331.16;5032776;28;20395;-66
2022/04/19 01:15:41;;;;;;;4.50;3.88;;;;;;;8.40;56.34;96328.94;5032629;28;20402;-66
2022/04/19 01:18:08;;;;;;;4.43;4.00;;;;;;;8.58;56.02;96325.47;5015008;28;20403;-67
2022/04/19 01:20:34;;;;;;;5.80;4.10;;;;;;;8.41;56.84;96327.16;5032751;28;20442;-66
2022/04/19 01:23:00;;;;;;;4.50;3.90;;;;;;;8.38;56.85;96327.56;5032244;28;20399;-66
2022/04/19 01:25:25;;;;;;;4.97;4.15;;;;;;;8.35;56.92;96328.84;5032314;28;20486;-66
2022/04/19 01:27:50;;;;;;;5.83;4.87;;;;;;;8.38;56.95;96317.94;5032388;28;20901;-66
2022/04/19 01:30:18;;;;;;;6.00;4.90;;;;;;;8.42;57.14;96319.06;5032127;28;20398;-66
2022/04/19 01:32:43;;;;;;;6.20;4.57;;;;;;;8.41;57.07;96317.50;5032282;28;20593;-65
2022/04/19 01:35:17;;;;;;;4.85;3.90;;;;;;;8.40;56.80;96312.50;5031953;28;20453;-66
2022/04/19 01:37:45;;;;;;;4.57;3.85;;;;;;;8.25;57.32;96315.47;5031631;28;20481;-65
2022/04/19 01:40:16;;;;;;;3.90;3.60;;;;;;;8.29;57.37;96312.22;5030822;28;20483;-66
2022/04/19 01:42:53;;;;;;;4.93;3.60;;;;;;;8.00;58.34;96310.41;5031559;28;20398;-66
2022/04/19 01:45:23;;;;;;;4.20;3.40;;;;;;;8.00;58.58;96310.41;5031830;28;20395;-65
2022/04/19 01:47:50;;;;;;;4.07;3.67;;;;;;;8.02;58.54;96307.59;5031784;28;20455;-65
2022/04/19 01:50:17;;;;;;;4.63;3.63;;;;;;;8.24;57.85;96301.66;5031686;28;20889;-65
2022/04/19 01:52:44;;;;;;;4.68;3.50;;;;;;;8.03;58.05;96303.94;5031645;28;20922;-67
2022/04/19 01:55:13;;;;;;;5.37;3.80;;;;;;;8.14;57.88;96297.97;5031479;28;20836;-66
2022/04/19 01:57:41;;;;;;;4.07;3.60;;;;;;;8.05;58.38;96294.88;5031733;28;20421;-66
2022/04/19 02:00:07;;;;;;;3.50;3.10;;;;;;;8.08;58.03;96296.28;5031546;28;20434;-65
2022/04/19 02:02:32;;;;;;;4.40;3.55;;;;;;;8.06;57.79;96304.31;5031450;28;20446;-64
2022/04/19 02:04:58;;;;;;;3.92;3.40;;;;;;;7.99;58.20;96290.56;5031885;28;20422;-65
2022/04/19 02:07:23;;;;;;;3.97;3.23;;;;;;;8.05;57.31;96291.47;5013329;28;20421;-66
2022/04/19 02:09:49;;;;;;;4.35;3.50;;;;;;;7.94;57.49;96293.84;5014204;28;20405;-67
2022/04/19 02:12:14;;;;;;;3.70;3.30;;;;;;;8.03;57.79;96296.91;5031487;28;20816;-66
2022/04/19 02:14:41;;;;;;;4.37;3.47;;;;;;;7.95;58.66;96297.25;5031895;28;20395;-65
2022/04/19 02:17:11;;;;;;;3.85;3.28;;;;;;;7.92;58.71;96301.06;5031401;28;20884;-66
2022/04/19 02:19:36;;;;;;;3.45;3.15;;;;;;;7.87;58.87;96297.53;5014166;28;20395;-66
2022/04/19 02:22:05;;;;;;;3.90;3.10;;;;;;;7.96;58.96;96292.81;5031655;28;20440;-66
2022/04/19 02:24:31;;;;;;;3.65;3.35;;;;;;;7.78;58.95;96291.84;4978389;28;20409;-66
2022/04/19 02:26:57;;;;;;;4.73;3.30;;;;;;;7.81;59.22;96291.38;5028726;28;20411;-66
2022/04/19 02:29:25;;;;;;;4.22;3.70;;;;;;;7.74;59.37;96290.69;5032052;28;20399;-66
2022/04/19 02:31:51;;;;;;;3.83;3.47;;;;;;;7.87;59.64;96294.94;5031143;28;20426;-66
2022/04/19 02:34:18;;;;;;;4.18;3.78;;;;;;;7.71;60.27;96288.50;5013431;28;20407;-66
2022/04/19 02:36:44;;;;;;;4.20;3.80;;;;;;;7.48;61.08;96291.00;5013856;28;20873;-65
2022/04/19 02:39:10;;;;;;;4.28;3.88;;;;;;;7.42;61.46;96289.28;5013048;28;20477;-65
2022/04/19 02:41:36;;;;;;;4.20;3.80;;;;;;;7.44;61.44;96285.44;5031350;28;20861;-66
2022/04/19 02:44:02;;;;;;;5.25;3.90;;;;;;;7.48;61.38;96285.78;5031307;28;20398;-66
2022/04/19 02:46:29;;;;;;;4.50;4.00;;;;;;;7.76;60.47;96293.06;5031247;28;20757;-66
2022/04/19 02:48:55;;;;;;;4.63;3.78;;;;;;;7.84;60.11;96282.34;5031545;28;20509;-67
2022/04/19 02:51:21;;;;;;;5.20;4.03;;;;;;;7.72;60.57;96292.72;5031186;28;20394;-66
2022/04/19 02:53:46;;;;;;;4.43;4.03;;;;;;;7.48;61.69;96283.97;5031218;28;20805;-65
2022/04/19 02:56:12;;;;;;;4.60;3.90;;;;;;;7.47;61.94;96285.00;5031297;28;20474;-66
2022/04/19 02:58:38;;;;;;;4.45;4.05;;;;;;;7.61;61.33;96280.44;5031465;28;20383;-66
2022/04/19 03:01:03;;;;;;;5.37;4.00;;;;;;;7.47;61.47;96278.97;5031158;28;20549;-65
2022/04/19 03:03:29;;;;;;;4.43;4.03;;;;;;;7.48;62.00;96280.56;5031255;28;20430;-65
2022/04/19 03:05:56;;;;;;;4.28;3.88;;;;;;;7.26;62.71;96269.81;5031420;28;20401;-65
2022/04/19 03:08:21;;;;;;;4.88;3.83;;;;;;;7.31;62.74;96275.16;5031057;28;20408;-66
2022/04/19 03:10:49;;;;;;;5.60;4.30;;;;;;;7.59;61.82;96269.41;5031496;28;20925;-65
2022/04/19 03:13:16;;;;;;;5.97;4.25;;;;;;;7.42;62.09;96266.59;5030940;28;20398;-66
2022/04/19 03:15:42;;;;;;;4.65;4.20;;;;;;;7.16;63.02;96263.50;5031296;28;20391;-66
2022/04/19 03:18:07;;;;;;;4.80;4.10;;;;;;;7.21;63.35;96268.88;5032086;28;20410;-65
2022/04/19 03:20:33;;;;;;;4.60;4.15;;;;;;;7.07;63.58;96263.03;5034557;28;20398;-65
2022/04/19 03:28:26;;;;;;;4.17;3.70;;;;;;;7.29;62.86;96258.97;5034798;28;20489;-66
2022/04/19 03:30:51;;;;;;;6.20;3.80;;;;;;;7.23;63.12;96264.25;5034495;28;20490;-66
2022/04/19 03:33:17;;;;;;;4.45;4.00;;;;;;;6.98;63.98;96266.91;5034568;28;20395;-64
2022/04/19 03:35:43;;;;;;;4.30;3.90;;;;;;;6.82;64.10;96268.28;5034604;28;20394;-65
2022/04/19 03:38:09;;;;;;;4.05;3.65;;;;;;;6.78;64.59;96266.31;5034196;28;20418;-66
2022/04/19 03:40:35;;;;;;;4.70;4.30;;;;;;;6.82;64.39;96265.69;5034150;28;20509;-66
2022/04/19 03:43:00;;;;;;;4.03;3.60;;;;;;;7.03;63.75;96270.47;5034585;28;20387;-65
2022/04/19 03:45:26;;;;;;;4.13;3.57;;;;;;;7.10;63.17;96265.19;5034610;28;20449;-66
2022/04/19 03:47:52;;;;;;;3.97;3.50;;;;;;;7.09;63.15;96272.19;5016543;28;20893;-66
2022/04/19 03:50:18;;;;;;;4.47;3.88;;;;;;;7.02;62.96;96270.69;5034667;28;20398;-65
2022/04/19 03:52:44;;;;;;;4.13;3.70;;;;;;;6.96;63.12;96274.97;5033902;28;20395;-65
2022/04/19 03:55:10;;;;;;;4.20;3.77;;;;;;;7.05;62.90;96267.66;5033844;28;20440;-66
2022/04/19 03:57:35;;;;;;;4.47;3.60;;;;;;;7.01;62.77;96269.09;5034204;28;20807;-65
2022/04/19 04:00:01;;;;;;;3.93;3.43;;;;;;;7.13;61.79;96271.78;5033541;28;20476;-66
2022/04/19 04:02:27;;;;;;;3.90;3.50;;;;;;;7.03;62.39;96273.06;5034192;28;20457;-65
2022/04/19 04:04:52;;;;;;;4.28;3.45;;;;;;;6.91;62.37;96269.56;5015911;28;20803;-66
2022/04/19 04:07:18;;;;;;;3.60;3.30;;;;;;;6.91;62.44;96274.78;5016105;28;20481;-64
2022/04/19 04:09:43;;;;;;;5.13;3.70;;;;;;;7.29;61.37;96271.19;5033703;28;20399;-66
2022/04/19 04:12:12;;;;;;;4.03;3.40;;;;;;;7.02;61.62;96274.06;5016217;28;20402;-66
2022/04/19 04:14:39;;;;;;;3.90;3.50;;;;;;;6.94;62.01;96274.38;5034110;28;20495;-65
2022/04/19 04:17:05;;;;;;;3.45;3.15;;;;;;;7.21;61.10;96272.28;5033798;28;20490;-67
2022/04/19 04:19:30;;;;;;;4.22;3.40;;;;;;;7.15;61.92;96270.53;5034010;28;20403;-64
2022/04/19 04:21:56;;;;;;;4.63;3.20;;;;;;;6.80;62.98;96278.09;5033875;28;20394;-66
2022/04/19 04:24:21;;;;;;;3.97;3.57;;;;;;;6.82;63.27;96273.50;5032877;28;20395;-66
2022/04/19 04:26:47;;;;;;;3.83;3.43;;;;;;;6.77;64.24;96277.75;5015662;28;20419;-65
2022/04/19 04:29:12;;;;;;;5.63;3.60;;;;;;;6.63;64.17;96275.25;5032779;28;20866;-65
2022/04/19 04:31:38;;;;;;;3.67;3.35;;;;;;;6.90;63.34;96280.22;5032999;28;20395;-66
2022/04/19 04:34:04;;;;;;;3.92;3.60;;;;;;;6.91;63.76;96274.78;5033294;28;20406;-67
2022/04/19 04:36:29;;;;;;;4.18;3.78;;;;;;;7.09;63.05;96280.03;5032858;28;20885;-66
2022/04/19 04:38:55;;;;;;;4.27;3.90;;;;;;;6.82;64.26;96280.50;5032653;28;20392;-65
2022/04/19 04:41:20;;;;;;;4.97;3.90;;;;;;;7.01;64.38;96276.91;5033521;28;20403;-66
2022/04/19 04:43:45;;;;;;;5.20;4.00;;;;;;;7.05;64.33;96275.47;5033081;28;20482;-65
2022/04/19 04:51:39;;;;;;;4.85;3.47;;;;;;;6.80;64.01;96275.50;5032969;28;20452;-65
2022/04/19 04:54:05;;;;;;;4.43;3.73;;;;;;;6.90;63.51;96278.44;5033088;28;20765;-67
2022/04/19 04:56:30;;;;;;;4.43;3.92;;;;;;;6.98;63.70;96280.72;5033173;28;20406;-67
2022/04/19 04:58:56;;;;;;;4.30;3.67;;;;;;;7.33;62.78;96270.53;5032839;28;20398;-67
2022/04/19 05:01:21;;;;;;;4.40;3.83;;;;;;;7.34;62.41;96277.34;5032775;28;20777;-66
2022/04/19 05:03:47;;;;;;;4.05;3.65;;;;;;;7.33;61.70;96267.13;5032579;28;20430;-66
2022/04/19 05:06:12;;;;;;;5.33;3.97;;;;;;;7.34;61.65;96269.53;5033057;28;20391;-65
2022/04/19 05:08:37;;;;;;;5.93;4.00;;;;;;;7.19;62.29;96271.69;5032913;28;20383;-66
2022/04/19 05:11:03;;;;;;;3.90;3.50;;;;;;;7.84;60.62;96283.13;5032902;28;20944;-67
2022/04/19 05:13:28;;;;;;;20.00;8.37;;;;;;;8.07;59.75;96284.22;5032437;28;20390;-63
2022/04/19 05:15:54;;;;;;;63.08;27.98;;;;;;;8.05;58.98;96281.03;5032499;28;20391;-67
2022/04/19 05:18:19;;;;;;;104.23;43.03;;;;;;;8.24;58.86;96279.97;5032631;28;20399;-67
2022/04/19 05:20:45;;;;;;;70.55;29.85;;;;;;;8.05;59.17;96276.63;5032527;28;20415;-66
2022/04/19 05:23:10;;;;;;;43.80;18.95;;;;;;;8.27;58.43;96280.31;5032221;28;20430;-67
2022/04/19 05:25:36;;;;;;;26.07;12.37;;;;;;;8.59;57.87;96282.63;5032047;28;20383;-67
2022/04/19 05:28:02;;;;;;;14.63;7.03;;;;;;;8.42;58.39;96279.91;5032212;28;20811;-66
2022/04/19 05:30:27;;;;;;;7.28;5.05;;;;;;;8.38;59.23;96283.19;5032007;28;20410;-67
2022/04/19 05:32:53;;;;;;;6.00;4.50;;;;;;;8.26;59.79;96283.13;5031016;28;20403;-67
2022/04/19 05:35:18;;;;;;;5.53;4.10;;;;;;;8.10;60.33;96289.78;5032089;28;20391;-67
2022/04/19 05:37:45;;;;;;;5.23;4.17;;;;;;;8.50;59.25;96284.00;5014527;28;20869;-66
2022/04/19 05:40:11;;;;;;;5.50;3.83;;;;;;;8.31;59.70;96291.91;5031916;28;20802;-65
2022/04/19 05:42:36;;;;;;;5.10;3.83;;;;;;;8.66;58.64;96286.75;5014410;28;20440;-66
2022/04/19 05:45:02;;;;;;;4.57;3.72;;;;;;;9.11;57.50;96279.13;5014105;28;20415;-66
2022/04/19 05:47:27;;;;;;;4.27;3.60;;;;;;;9.77;55.88;96284.84;5031541;28;20501;-67
2022/04/19 05:49:52;;;;;;;3.93;3.23;;;;;;;10.00;54.64;96285.56;5013893;28;20797;-67
2022/04/19 05:52:18;;;;;;;4.60;3.07;;;;;;;10.10;54.29;96286.75;5032399;28;20391;-67
2022/04/19 05:54:43;;;;;;;4.13;3.60;;;;;;;10.29;54.05;96290.81;5031785;28;20414;-66
2022/04/19 05:57:11;;;;;;;5.87;3.57;;;;;;;10.79;52.94;96293.44;5031852;28;20399;-64
2022/04/19 05:59:37;;;;;;;7.03;3.92;;;;;;;11.04;52.27;96291.16;5031569;28;20395;-64
2022/04/19 06:04:53;;;;;;;4.70;3.85;;;;;;;11.20;51.32;96294.81;4992069;28;20405;-66
2022/04/19 06:07:29;;;;;;;5.90;3.72;;;;;;;11.45;50.35;96287.25;4992398;28;20418;-66
2022/04/19 06:09:56;;;;;;;4.43;3.50;;;;;;;11.50;50.72;96287.31;4992559;28;20429;-65
2022/04/19 06:12:21;;;;;;;3.65;3.30;;;;;;;11.67;49.93;96290.66;4992199;28;20414;-66
2022/04/19 06:14:46;;;;;;;4.27;3.53;;;;;;;12.18;48.85;96293.88;4991831;28;20409;-67
2022/04/19 06:17:14;;;;;;;4.00;3.50;;;;;;;11.92;49.59;96292.81;4991539;28;20421;-67
2022/04/19 06:19:40;;;;;;;4.38;3.17;;;;;;;12.29;49.04;96294.75;4991607;28;20553;-66
2022/04/19 06:22:05;;;;;;;4.35;3.40;;;;;;;12.52;48.65;96291.00;4991417;28;20850;-67
2022/04/19 06:24:31;;;;;;;4.07;3.30;;;;;;;12.57;48.93;96285.78;4991078;28;20477;-67
2022/04/19 06:26:56;;;;;;;4.22;3.25;;;;;;;12.50;47.75;96291.25;4991225;28;20417;-68
2022/04/19 06:29:22;;;;;;;4.87;3.23;;;;;;;12.99;47.03;96289.25;4991814;28;20884;-68
2022/04/19 06:31:47;;;;;;;5.70;3.30;;;;;;;12.80;46.78;96291.50;4991827;28;20754;-68
2022/04/19 06:34:13;;;;;;;3.70;3.30;;;;;;;12.68;46.97;96284.81;4992244;28;20398;-67
2022/04/19 06:36:38;;;;;;;4.80;3.63;;;;;;;12.85;47.15;96274.97;4992777;28;20615;-67
2022/04/19 06:39:05;;;;;;;4.53;3.00;;;;;;;12.93;46.66;96281.59;4992443;28;20188;-67
2022/04/19 06:41:30;;;;;;;3.50;3.03;;;;;;;12.87;46.11;96284.16;4992070;28;20187;-69
2022/04/19 06:43:58;;;;;;;6.93;3.77;;;;;;;12.66;46.85;96287.69;4992759;28;20176;-68
2022/04/19 06:46:26;;;;;;;5.57;3.20;;;;;;;13.09;45.88;96286.69;4993239;28;20200;-69
2022/04/19 06:48:56;;;;;;;4.77;2.93;;;;;;;13.20;45.57;96290.22;4993244;28;20184;-70
2022/04/19 06:51:22;;;;;;;4.17;3.27;;;;;;;13.45;44.89;96279.78;4992740;28;20219;-68
2022/04/19 06:53:48;;;;;;;3.97;3.40;;;;;;;13.18;45.50;96289.66;4993972;28;20489;-70
2022/04/19 06:56:14;;;;;;;6.05;3.20;;;;;;;13.22;45.88;96290.72;4995093;28;20471;-71
2022/04/19 06:58:39;;;;;;;5.10;3.17;;;;;;;13.81;44.51;96287.84;4996726;28;20182;-69
2022/04/19 07:01:06;;;;;;;6.03;3.30;;;;;;;14.09;43.99;96284.75;4993275;28;20183;-69
2022/04/19 07:03:33;;;;;;;6.03;3.73;;;;;;;14.11;44.06;96282.63;5019474;28;20234;-69
2022/04/19 07:05:58;;;;;;;3.27;2.97;;;;;;;14.24;43.69;96289.25;5034039;28;20178;-69
2022/04/19 07:08:23;;;;;;;4.23;3.70;;;;;;;14.46;42.83;96281.91;5035469;28;20297;-68
2022/04/19 07:10:49;;;;;;;6.10;3.53;;;;;;;14.47;43.03;96286.16;5035794;28;20187;-69
2022/04/19 07:13:14;;;;;;;4.73;3.50;;;;;;;14.66;42.97;96289.03;5035403;28;20277;-69
2022/04/19 07:15:40;;;;;;;4.53;3.27;;;;;;;14.65;42.50;96285.63;5035302;28;20221;-70
2022/04/19 07:18:05;;;;;;;4.23;3.30;;;;;;;14.79;41.31;96277.97;5034888;28;20633;-69
2022/04/19 07:28:43;;;;;;;5.77;3.80;;;;;;;14.94;41.82;96280.56;5035308;28;20323;-69
2022/04/19 07:31:08;;;;;;;4.97;3.57;;;;;;;14.83;42.34;96279.78;5035205;28;20206;-69
2022/04/19 07:33:38;;;;;;;4.20;3.40;;;;;;;15.06;42.10;96285.56;5017198;28;20191;-68
2022/04/19 07:36:07;;;;;;;7.13;4.07;;;;;;;15.05;42.25;96281.34;5035716;28;20205;-68
2022/04/19 07:38:32;;;;;;;8.57;3.60;;;;;;;15.21;42.15;96283.69;5034261;28;20205;-68
2022/04/19 07:40:58;;;;;;;8.67;3.67;;;;;;;15.32;42.37;96284.47;5035416;28;20253;-69
2022/04/19 07:43:24;;;;;;;7.60;3.80;;;;;;;15.40;42.56;96283.91;5017067;28;20186;-68
2022/04/19 07:45:49;;;;;;;8.20;3.63;;;;;;;15.44;42.35;96281.50;5017179;28;20178;-69
2022/04/19 07:48:15;;;;;;;6.50;3.70;;;;;;;15.35;42.56;96279.44;5034469;28;20276;-68
2022/04/19 07:50:42;;;;;;;5.23;3.90;;;;;;;15.74;41.55;96276.16;5035351;28;20278;-69
2022/04/19 07:53:09;;;;;;;4.30;3.07;;;;;;;15.67;41.79;96276.44;5035117;28;20241;-69
2022/04/19 07:55:34;;;;;;;5.37;3.87;;;;;;;15.60;42.19;96269.88;5034376;28;20277;-68
2022/04/19 07:57:59;;;;;;;8.53;4.73;;;;;;;15.70;41.63;96267.97;5034517;28;20278;-67
2022/04/19 08:00:27;;;;;;;6.53;3.57;;;;;;;15.61;41.36;96269.59;5034706;28;20229;-68
2022/04/19 08:02:55;;;;;;;5.30;3.30;;;;;;;15.88;39.95;96271.06;5034488;28;20230;-68
2022/04/19 08:05:21;;;;;;;4.53;3.30;;;;;;;15.85;39.25;96280.31;5033147;28;20605;-69
2022/04/19 08:07:48;;;;;;;5.93;3.60;;;;;;;16.07;40.01;96277.28;5034606;28;20327;-68
2022/04/19 08:10:14;;;;;;;3.90;3.30;;;;;;;15.76;39.44;96274.81;5017072;28;20219;-69
2022/04/19 08:12:39;;;;;;;5.23;3.90;;;;;;;15.13;41.84;96278.97;5034241;28;20178;-68
2022/04/19 08:15:05;;;;;;;6.47;3.50;;;;;;;15.14;42.45;96283.19;5034380;28;20198;-68
2022/04/19 08:17:34;;;;;;;4.43;3.53;;;;;;;14.84;44.09;96276.09;5034410;28;20541;-68
2022/04/19 08:19:59;;;;;;;5.37;3.40;;;;;;;14.69;44.27;96272.69;5033804;28;20673;-69
2022/04/19 08:22:25;;;;;;;5.53;3.27;;;;;;;14.51;43.63;96279.28;5034330;28;20179;-70
2022/04/19 08:24:51;;;;;;;4.17;3.40;;;;;;;14.53;43.03;96277.19;5034002;28;20199;-68
2022/04/19 08:27:17;;;;;;;4.00;3.20;;;;;;;14.41;42.42;96271.38;5016353;28;20559;-68
2022/04/19 08:29:45;;;;;;;5.30;3.00;;;;;;;14.28;40.90;96272.63;5034234;28;20730;-68
2022/04/19 08:32:11;;;;;;;5.43;3.33;;;;;;;14.52;41.51;96268.47;5034273;28;20639;-68
2022/04/19 08:34:37;;;;;;;3.37;3.07;;;;;;;14.10;42.06;96270.50;5034510;28;20270;-68
2022/04/19 08:37:03;;;;;;;3.93;2.90;;;;;;;14.21;41.74;96266.81;5033734;28;20198;-68
2022/04/19 08:39:29;;;;;;;3.80;3.40;;;;;;;14.15;40.80;96270.53;5033472;28;20558;-68
2022/04/19 08:41:54;;;;;;;5.00;2.90;;;;;;;14.44;38.56;96269.00;5033693;28;20210;-69
2022/04/19 08:44:20;;;;;;;3.40;3.00;;;;;;;14.53;38.56;96267.44;5034208;28;20654;-68
2022/04/19 08:46:45;;;;;;;5.00;3.47;;;;;;;14.69;39.61;96260.28;5033691;28;20289;-67
2022/04/19 08:49:12;;;;;;;3.93;3.13;;;;;;;14.66;37.68;96257.38;5033546;28;20633;-68
2022/04/19 08:51:39;;;;;;;3.20;2.87;;;;;;;14.67;38.98;96258.97;5016116;28;20174;-68
2022/04/19 08:59:34;;;;;;;3.97;3.10;;;;;;;14.90;37.84;96258.41;5033286;28;20174;-68
2022/04/19 09:02:00;;;;;;;2.77;2.57;;;;;;;14.71;37.21;96265.31;5015632;28;20187;-68
2022/04/19 09:04:26;;;;;;;3.30;2.57;;;;;;;14.71;37.19;96260.03;5033648;28;20313;-67
2022/04/19 09:06:52;;;;;;;4.13;2.80;;;;;;;14.57;37.88;96254.50;5030591;28;20298;-68
2022/04/19 09:09:22;;;;;;;4.67;3.37;;;;;;;14.47;37.74;96263.22;5014488;28;20183;-68
2022/04/19 09:11:48;;;;;;;5.80;3.27;;;;;;;14.68;38.61;96257.91;5028751;28;20669;-68
2022/04/19 09:14:14;;;;;;;7.40;3.40;;;;;;;14.64;39.09;96264.78;5033032;28;20217;-67
2022/04/19 09:16:40;;;;;;;4.13;3.30;;;;;;;14.25;38.49;96259.19;5032909;28;20576;-69
2022/04/19 09:19:08;;;;;;;4.40;2.83;;;;;;;14.63;37.97;96247.38;5033473;28;20182;-68
2022/04/19 09:21:38;;;;;;;4.23;3.30;;;;;;;14.42;38.73;96255.28;5033323;28;20178;-69
2022/04/19 09:24:21;;;;;;;4.60;3.07;;;;;;;14.66;38.45;96250.25;5033124;28;20269;-68
2022/04/19 09:26:50;;;;;;;5.57;3.00;;;;;;;14.79;38.61;96248.94;5015192;28;20202;-68
2022/04/19 09:29:24;;;;;;;5.20;3.10;;;;;;;14.87;38.92;96240.50;5014827;28;20611;-68
2022/04/19 09:31:57;;;;;;;4.03;3.03;;;;;;;14.94;37.80;96251.53;5015640;28;20181;-68
2022/04/19 09:34:31;;;;;;;2.93;2.43;;;;;;;14.59;37.88;96246.31;5032972;28;20193;-67
2022/04/19 09:37:08;;;;;;;3.50;2.93;;;;;;;14.51;37.47;96251.06;5032876;28;20170;-67
2022/04/19 09:39:36;;;;;;;3.80;2.93;;;;;;;14.74;37.74;96241.03;5032754;28;20206;-68
2022/04/19 09:42:08;;;;;;;7.03;3.00;;;;;;;14.74;38.03;96243.66;5015454;28;20266;-69
2022/04/19 09:44:41;;;;;;;3.53;2.80;;;;;;;14.92;36.47;96235.19;5032810;28;20190;-68
2022/04/19 09:47:11;;;;;;;2.87;2.50;;;;;;;14.99;34.99;96243.63;5032917;28;20198;-70
2022/04/19 09:49:51;;;;;;;6.33;2.87;;;;;;;14.92;36.23;96233.34;5032003;28;20183;-70
2022/04/19 09:52:22;;;;;;;3.87;2.50;;;;;;;14.84;33.73;96233.09;5032442;28;20174;-69
2022/04/19 09:55:05;;;;;;;2.87;2.60;;;;;;;14.74;33.47;96231.28;5017339;28;20198;-69
2022/04/19 09:57:36;;;;;;;3.37;2.50;;;;;;;14.85;35.60;96226.75;5022036;28;20553;-68
2022/04/19 10:00:06;;;;;;;4.37;2.33;;;;;;;14.94;34.97;96225.94;5032628;28;20178;-68
2022/04/19 10:08:10;;;;;;;2.63;2.43;;;;;;;14.77;33.89;96228.09;5031516;28;20217;-68
2022/04/19 10:10:40;;;;;;;5.27;2.33;;;;;;;14.81;34.20;96236.28;5030974;28;20175;-68
2022/04/19 10:13:06;;;;;;;4.97;2.60;;;;;;;14.60;34.64;96224.94;5032175;28;20698;-68
2022/04/19 10:15:32;;;;;;;3.93;2.97;;;;;;;14.77;33.74;96225.44;5031816;28;20444;-69
2022/04/19 10:17:58;;;;;;;2.93;2.50;;;;;;;14.90;34.09;96218.84;5032284;28;20273;-68
2022/04/19 10:20:32;;;;;;;2.73;2.53;;;;;;;14.95;34.38;96224.91;5032621;28;20270;-68
2022/04/19 10:23:10;;;;;;;3.20;2.60;;;;;;;15.03;34.34;96218.28;5032022;28;20634;-68
2022/04/19 10:25:46;;;;;;;3.40;2.77;;;;;;;15.33;33.82;96220.00;5032011;28;20206;-69
2022/04/19 10:28:15;;;;;;;3.30;2.70;;;;;;;15.10;33.62;96223.28;5030806;28;20201;-68
2022/04/19 10:30:52;;;;;;;3.83;2.80;;;;;;;14.94;33.58;96204.84;5031879;28;20182;-70
2022/04/19 10:33:49;;;;;;;4.63;2.73;;;;;;;14.89;34.09;96217.25;5029304;28;20254;-68
2022/04/19 10:36:38;;;;;;;3.27;2.40;;;;;;;15.07;34.94;96218.53;5032216;28;20181;-68
2022/04/19 10:39:15;;;;;;;4.37;2.70;;;;;;;14.80;35.09;96217.00;5031604;28;20186;-68
2022/04/19 10:41:52;;;;;;;4.10;2.73;;;;;;;14.88;35.25;96205.09;5031925;28;20269;-68
2022/04/19 10:44:28;;;;;;;4.07;3.10;;;;;;;14.63;35.39;96215.72;5029720;28;20205;-68
2022/04/19 10:47:16;;;;;;;3.50;3.00;;;;;;;14.72;35.44;96203.56;5032078;28;20285;-69
2022/04/19 10:50:04;;;;;;;3.57;2.60;;;;;;;15.09;35.16;96197.94;5012754;28;20297;-68
2022/04/19 10:52:44;;;;;;;3.60;3.30;;;;;;;14.86;34.65;96194.84;5024776;28;20171;-69
2022/04/19 10:55:14;;;;;;;3.00;2.70;;;;;;;14.94;35.24;96196.91;5032151;28;20238;-69
2022/04/19 11:00:34;;;;;;;3.17;2.73;;;;;;;14.67;35.35;96191.19;5032332;28;20293;-68
2022/04/19 11:03:06;;;;;;;5.00;3.00;;;;;;;15.11;35.78;96198.44;5032442;28;20245;-69
2022/04/19 11:05:51;;;;;;;3.20;2.90;;;;;;;15.21;35.49;96193.16;5013166;28;20183;-68
2022/04/19 11:08:26;;;;;;;4.07;3.10;;;;;;;15.12;35.32;96187.63;5011980;28;20199;-69
2022/04/19 11:10:51;;;;;;;3.80;2.90;;;;;;;15.05;34.69;96187.13;5012304;28;20171;-68
2022/04/19 11:13:19;;;;;;;4.30;2.57;;;;;;;15.05;34.86;96187.13;5012163;28;20187;-68
2022/04/19 11:15:58;;;;;;;5.57;3.10;;;;;;;14.93;34.85;96179.50;5012635;28;20209;-68
2022/04/19 11:18:26;;;;;;;3.53;3.03;;;;;;;15.22;34.30;96184.16;5013378;28;20194;-67
2022/04/19 11:20:53;;;;;;;5.97;3.30;;;;;;;15.24;34.82;96172.28;5031183;28;20174;-69
2022/04/19 11:23:20;;;;;;;5.20;3.60;;;;;;;15.09;35.03;96172.34;5031549;28;20186;-68
2022/04/19 11:25:47;;;;;;;7.03;3.23;;;;;;;15.01;35.33;96178.16;5031933;28;20256;-67
2022/04/19 11:28:12;;;;;;;6.37;3.83;;;;;;;15.03;35.11;96178.69;5030099;28;20305;-69
2022/04/19 11:30:58;;;;;;;5.17;3.43;;;;;;;15.34;34.26;96160.88;5014180;28;20269;-68
2022/04/19 11:33:34;;;;;;;3.63;2.93;;;;;;;15.72;34.17;96164.66;5016574;28;20206;-68
2022/04/19 11:36:12;;;;;;;4.03;3.07;;;;;;;15.68;34.32;96166.25;5032192;28;20205;-68
2022/04/19 11:38:44;;;;;;;6.03;3.30;;;;;;;15.32;34.73;96155.84;5031372;28;20186;-68
2022/04/19 11:46:44;;;;;;;4.50;3.00;;;;;;;15.22;35.15;96147.19;5035361;28;20317;-68
2022/04/19 11:49:15;;;;;;;5.77;3.57;;;;;;;15.21;34.95;96143.75;5035531;28;20639;-67
2022/04/19 11:51:45;;;;;;;3.43;3.10;;;;;;;15.37;34.94;96136.56;5034950;28;20183;-70
2022/04/19 11:54:22;;;;;;;7.43;3.77;;;;;;;15.42;34.40;96155.03;5035058;28;20193;-67
2022/04/19 11:56:52;;;;;;;4.57;3.40;;;;;;;15.43;34.95;96148.69;5035289;28;20297;-67
2022/04/19 11:59:18;;;;;;;3.73;3.20;;;;;;;15.53;35.13;96146.03;5034107;28;20542;-68
2022/04/19 12:01:49;;;;;;;5.17;3.47;;;;;;;15.66;34.37;96144.63;5034256;28;20186;-68
2022/04/19 12:04:15;;;;;;;4.47;3.60;;;;;;;15.75;34.23;96148.25;5034775;28;20227;-68
2022/04/19 12:07:02;;;;;;;3.87;3.43;;;;;;;15.31;34.57;96145.59;5026209;28;20290;-68
2022/04/19 12:09:31;;;;;;;9.53;3.57;;;;;;;15.57;34.63;96141.75;5016880;28;20273;-68
2022/04/19 12:11:57;;;;;;;3.37;3.00;;;;;;;15.56;33.33;96153.38;5034897;28;20641;-68
2022/04/19 12:14:27;;;;;;;4.00;2.53;;;;;;;15.76;33.21;96147.19;5016907;28;20193;-68
2022/04/19 12:17:02;;;;;;;3.80;3.20;;;;;;;16.05;33.68;96145.38;5032721;28;20191;-68
2022/04/19 12:19:41;;;;;;;3.40;3.00;;;;;;;15.71;33.22;96142.75;5017166;28;20196;-68
2022/04/19 12:22:23;;;;;;;3.63;3.33;;;;;;;16.13;33.26;96138.72;5016285;28;20221;-66